createdAt,value
2019-03-23T08:57:03.486Z,7.37
2019-03-23T08:59:34.822Z,7.50
2019-03-23T09:02:06.282Z,5.30
2019-03-23T09:04:37.942Z,3.62
2019-03-23T09:07:09.388Z,5.50
2019-03-23T09:09:40.752Z,6.85
2019-03-23T09:12:12.297Z,7.75
2019-03-23T09:14:43.848Z,7.87
2019-03-23T09:17:15.513Z,5.28
2019-03-23T09:19:46.973Z,5.53
2019-03-23T09:22:18.519Z,7.40
2019-03-23T09:24:50.076Z,4.40
2019-03-23T09:27:21.524Z,1.75
2019-03-23T09:29:53.184Z,5.87
2019-03-23T09:32:24.640Z,10.40
2019-03-23T09:34:56.502Z,3.62
2019-03-23T09:37:27.953Z,6.83
2019-03-23T09:40:09.963Z,3.35
2019-03-23T09:42:32.897Z,3.70
2019-03-23T09:45:06.608Z,5.62
2019-03-23T09:47:37.968Z,4.33
2019-03-23T09:50:10.440Z,4.42
2019-03-23T09:52:41.788Z,3.20
2019-03-23T09:55:13.445Z,7.85
2019-03-23T09:57:44.798Z,10.93
2019-03-23T10:00:16.559Z,11.33
2019-03-23T10:02:47.953Z,7.58
2019-03-23T10:05:19.563Z,9.83
2019-03-23T10:07:50.857Z,6.78
2019-03-23T10:10:22.386Z,4.78
2019-03-23T10:12:53.929Z,4.08
2019-03-23T10:15:25.798Z,3.10
2019-03-23T10:17:57.243Z,3.20
2019-03-23T10:20:28.898Z,5.42
2019-03-23T10:23:00.258Z,2.98
2019-03-23T10:25:31.908Z,2.85
2019-03-23T10:28:03.366Z,3.95
2019-03-23T10:30:34.829Z,5.62
2019-03-23T10:33:06.265Z,2.75
2019-03-23T10:35:37.824Z,2.50
2019-03-23T10:38:09.484Z,4.78
2019-03-23T10:40:42.930Z,3.10
2019-03-23T10:43:13.884Z,6.35
2019-03-23T10:45:45.478Z,8.80
2019-03-23T10:48:17.032Z,4.87
2019-03-23T10:50:48.479Z,3.40
2019-03-23T10:53:23.185Z,3.70
2019-03-23T10:55:53.136Z,3.70
2019-03-23T10:58:24.504Z,3.40
2019-03-23T11:00:56.036Z,3.27
2019-03-23T11:03:27.490Z,5.25
2019-03-23T11:05:59.150Z,3.40
2019-03-23T11:08:30.511Z,10.05
2019-03-23T11:11:02.262Z,7.97
2019-03-23T11:13:33.808Z,5.92
2019-03-23T11:16:05.471Z,6.35
2019-03-23T11:18:37.886Z,3.90
2019-03-23T11:21:09.317Z,5.85
2019-03-23T11:23:40.755Z,5.95
2019-03-23T11:26:12.445Z,3.50
2019-03-23T11:28:43.866Z,3.80
2019-03-23T11:31:16.567Z,5.15
2019-03-23T11:33:48.107Z,8.08
2019-03-23T11:36:19.659Z,8.55
2019-03-23T11:38:50.894Z,6.33
2019-03-23T11:41:22.564Z,19.77
2019-03-23T11:43:54.432Z,9.85
2019-03-23T11:46:25.879Z,4.45
2019-03-23T11:48:57.231Z,6.22
2019-03-23T11:51:28.894Z,7.65
2019-03-23T11:54:00.237Z,9.00
2019-03-23T11:56:31.898Z,7.08
2019-03-23T11:59:03.273Z,8.50
2019-03-23T12:01:35.016Z,7.67
2019-03-23T12:04:06.489Z,6.90
2019-03-23T12:06:37.738Z,8.38
2019-03-23T12:09:09.266Z,8.55
2019-03-23T12:11:40.481Z,6.33
2019-03-23T12:14:12.172Z,19.12
2019-03-23T12:16:43.737Z,24.20
2019-03-23T12:19:15.388Z,13.55
2019-03-23T12:21:47.149Z,6.08
2019-03-23T12:24:18.802Z,15.65
2019-03-23T12:26:50.365Z,8.45
2019-03-23T12:29:21.832Z,4.45
2019-03-23T12:31:53.473Z,6.50
2019-03-23T12:34:25.022Z,4.30
2019-03-23T12:36:56.683Z,6.20
2019-03-23T12:39:28.340Z,5.25
2019-03-23T12:41:59.895Z,3.92
2019-03-23T12:44:31.553Z,4.80
2019-03-23T12:47:03.210Z,4.47
2019-03-23T12:49:34.871Z,6.03
2019-03-23T12:52:06.322Z,7.05
2019-03-23T12:54:37.982Z,5.80
2019-03-23T12:57:09.538Z,6.75
2019-03-23T12:59:41.198Z,6.80
2019-03-23T13:02:12.647Z,5.62
2019-03-23T13:04:44.310Z,8.73
2019-03-23T13:07:15.862Z,4.83
2019-03-23T13:09:47.214Z,6.53
2019-03-23T13:12:18.867Z,6.40
2019-03-23T13:14:50.222Z,8.98
2019-03-23T13:17:21.774Z,5.17
2019-03-23T13:19:53.339Z,8.03
2019-03-23T13:22:24.988Z,5.17
2019-03-23T13:24:56.443Z,5.08
2019-03-23T13:27:28.100Z,3.58
2019-03-23T13:30:02.008Z,4.80
2019-03-23T13:32:33.671Z,4.50
2019-03-23T13:35:05.738Z,5.25
2019-03-23T13:37:37.290Z,4.05
2019-03-23T13:40:10.789Z,5.35
2019-03-23T13:42:42.037Z,5.78
2019-03-23T13:45:13.492Z,4.25
2019-03-23T13:47:45.052Z,5.62
2019-03-23T13:50:27.348Z,8.85
2019-03-23T13:52:58.709Z,11.38
2019-03-23T13:55:33.427Z,6.00
2019-03-23T13:58:09.611Z,5.10
2019-03-23T14:00:42.068Z,4.28
2019-03-23T14:03:13.720Z,3.92
2019-03-23T14:05:45.173Z,7.78
2019-03-23T14:08:16.832Z,6.67
2019-03-23T14:10:48.491Z,9.43
2019-03-23T14:13:19.950Z,12.25
2019-03-23T14:15:51.805Z,9.53
2019-03-23T14:18:23.262Z,6.03
2019-03-23T14:20:55.019Z,4.62
2019-03-23T14:23:26.469Z,7.03
2019-03-23T14:25:58.127Z,6.53
2019-03-23T14:28:29.588Z,19.70
2019-03-23T14:31:01.445Z,12.82
2019-03-23T14:33:33.311Z,16.10
2019-03-23T14:36:04.877Z,16.60
2019-03-23T14:38:36.624Z,14.55
2019-03-23T14:41:08.301Z,21.20
2019-03-23T14:43:40.144Z,19.98
2019-03-23T14:46:11.908Z,29.57
2019-03-23T14:48:43.364Z,25.77
2019-03-23T14:51:15.117Z,20.02
2019-03-23T14:53:46.979Z,9.45
2019-03-23T14:56:18.434Z,11.80
2019-03-23T14:58:53.162Z,9.60
2019-03-23T15:01:24.721Z,6.33
2019-03-23T15:03:56.370Z,9.18
2019-03-23T15:06:27.857Z,50.28
2019-03-23T15:08:59.585Z,15.93
2019-03-23T15:11:31.171Z,11.45
2019-03-23T15:14:02.902Z,9.23
2019-03-23T15:16:34.458Z,9.40
2019-03-23T15:19:06.049Z,10.03
2019-03-23T15:21:37.776Z,11.83
2019-03-23T15:24:09.532Z,17.98
2019-03-23T15:26:41.294Z,16.07
2019-03-23T15:29:12.887Z,11.15
2019-03-23T15:31:44.616Z,12.40
2019-03-23T15:34:16.170Z,9.38
2019-03-23T15:36:47.719Z,8.10
2019-03-23T15:39:19.175Z,10.30
2019-03-23T15:41:51.035Z,12.33
2019-03-23T15:44:22.597Z,10.40
2019-03-23T15:46:54.351Z,8.48
2019-03-23T15:49:25.804Z,7.85
2019-03-23T15:51:57.360Z,5.75
2019-03-23T15:54:29.158Z,6.78
2019-03-23T15:57:00.873Z,8.10
2019-03-23T15:59:32.540Z,8.75
2019-03-23T16:02:04.202Z,8.15
2019-03-23T16:04:35.640Z,7.08
2019-03-23T16:07:07.213Z,8.05
2019-03-23T16:09:38.566Z,8.10
2019-03-23T16:12:10.114Z,9.50
2019-03-23T16:14:41.561Z,8.25
2019-03-23T16:17:13.114Z,8.40
2019-03-23T16:19:44.700Z,12.28
2019-03-23T16:22:16.439Z,10.15
2019-03-23T16:24:48.194Z,14.23
2019-03-23T16:27:19.678Z,7.55
2019-03-23T16:29:51.305Z,6.95
2019-03-23T16:32:22.860Z,8.88
2019-03-23T16:34:54.219Z,13.40
2019-03-23T16:37:26.077Z,10.20
2019-03-23T16:39:58.857Z,5.30
2019-03-23T16:42:30.617Z,8.35
2019-03-23T16:45:02.281Z,6.55
2019-03-23T16:47:33.946Z,7.28
2019-03-23T16:50:08.011Z,8.95
2019-03-23T16:52:39.516Z,9.40
2019-03-23T16:55:11.568Z,15.88
2019-03-23T16:57:43.124Z,10.20
2019-03-23T17:00:16.581Z,10.72
2019-03-23T17:02:50.763Z,7.55
2019-03-23T17:05:24.619Z,7.72
2019-03-23T17:07:58.480Z,8.60
2019-03-23T17:10:32.504Z,7.70
2019-03-23T17:13:06.606Z,13.43
2019-03-23T17:15:40.733Z,7.62
2019-03-23T17:18:14.725Z,5.67
2019-03-23T17:20:49.255Z,6.65
2019-03-23T17:23:23.149Z,7.80
2019-03-23T17:25:58.678Z,8.40
2019-03-23T17:28:32.651Z,8.75
2019-03-23T17:31:06.462Z,10.90
2019-03-23T17:33:40.734Z,13.60
2019-03-23T17:36:14.906Z,8.98
2019-03-23T17:38:50.735Z,11.47
2019-03-23T17:41:24.706Z,7.78
2019-03-23T17:43:58.921Z,7.62
2019-03-23T17:46:35.045Z,9.48
2019-03-23T17:49:10.179Z,8.33
2019-03-23T17:51:44.244Z,11.97
2019-03-23T17:54:18.542Z,10.82
2019-03-23T17:56:54.035Z,12.40
2019-03-23T17:59:28.479Z,12.33
2019-03-23T18:02:02.632Z,10.15
2019-03-23T18:04:36.711Z,9.08
2019-03-23T18:07:10.725Z,10.32
2019-03-23T18:09:45.044Z,11.65
2019-03-23T18:12:19.223Z,11.83
2019-03-23T18:14:53.441Z,8.73
2019-03-23T18:17:27.352Z,15.70
2019-03-23T18:20:01.880Z,9.45
2019-03-23T18:22:35.967Z,18.85
2019-03-23T18:25:12.481Z,8.18
2019-03-23T18:27:48.593Z,7.25
2019-03-23T18:30:36.977Z,7.28
2019-03-23T18:33:10.958Z,7.78
2019-03-23T18:35:48.175Z,7.75
2019-03-23T18:38:23.803Z,9.13
2019-03-23T18:40:57.987Z,8.08
2019-03-23T18:43:32.658Z,12.40
2019-03-23T18:46:08.307Z,14.33
2019-03-23T18:48:42.986Z,12.07
2019-03-23T18:51:17.828Z,12.53
2019-03-23T18:53:53.715Z,12.55
2019-03-23T18:56:27.718Z,15.43
2019-03-23T18:59:02.006Z,11.68
2019-03-23T19:01:36.040Z,12.60
2019-03-23T19:04:12.623Z,10.18
2019-03-23T19:09:23.428Z,11.15
2019-03-23T19:11:57.673Z,8.00
2019-03-23T19:14:32.169Z,11.93
2019-03-23T19:17:06.429Z,10.15
2019-03-23T19:19:40.690Z,11.18
2019-03-23T19:22:15.038Z,10.25
2019-03-23T19:24:50.197Z,19.92
2019-03-23T19:27:24.593Z,10.28
2019-03-23T19:29:58.899Z,12.93
2019-03-23T19:32:33.257Z,14.83
2019-03-23T19:35:07.726Z,17.75
2019-03-23T19:37:42.228Z,12.03
2019-03-23T19:40:16.465Z,9.67
2019-03-23T19:42:50.569Z,13.68
2019-03-23T19:45:24.701Z,9.00
2019-03-23T19:47:58.687Z,10.35
2019-03-23T19:50:34.201Z,9.10
2019-03-23T19:53:08.054Z,23.77
2019-03-23T19:55:42.191Z,35.25
2019-03-23T19:58:16.431Z,23.15
2019-03-23T20:00:50.715Z,15.50
2019-03-23T20:03:25.001Z,10.55
2019-03-23T20:06:00.547Z,9.90
2019-03-23T20:08:34.567Z,20.00
2019-03-23T20:11:08.942Z,20.10
2019-03-23T20:13:43.050Z,16.90
2019-03-23T20:16:18.972Z,15.40
2019-03-23T20:18:53.855Z,15.45
2019-03-23T20:21:30.612Z,13.93
2019-03-23T20:24:04.848Z,11.30
2019-03-23T20:26:40.627Z,11.20
2019-03-23T20:29:15.097Z,11.28
2019-03-23T20:31:50.296Z,9.20
2019-03-23T20:34:24.330Z,21.55
2019-03-23T20:36:58.691Z,18.07
2019-03-23T20:39:32.627Z,14.10
2019-03-23T20:42:06.698Z,13.72
2019-03-23T20:44:40.683Z,14.30
2019-03-23T20:47:14.832Z,19.75
2019-03-23T20:49:48.968Z,13.70
2019-03-23T20:52:22.914Z,12.70
2019-03-23T20:54:56.882Z,13.93
2019-03-23T20:57:37.358Z,14.50
2019-03-23T21:00:08.784Z,14.00
2019-03-23T21:02:42.883Z,11.60
2019-03-23T21:05:16.983Z,18.30
2019-03-23T21:07:51.194Z,9.73
2019-03-23T21:10:26.028Z,16.07
2019-03-23T21:13:00.037Z,18.62
2019-03-23T21:15:33.965Z,20.48
2019-03-23T21:18:08.209Z,17.40
2019-03-23T21:20:42.217Z,18.00
2019-03-23T21:23:16.090Z,14.25
2019-03-23T21:25:50.332Z,12.40
2019-03-23T21:28:24.106Z,12.98
2019-03-23T21:30:57.660Z,14.13
2019-03-23T21:33:32.118Z,11.75
2019-03-23T21:38:39.217Z,12.82
2019-03-23T21:41:11.225Z,13.55
2019-03-23T21:43:43.091Z,16.62
2019-03-23T21:46:14.841Z,15.75
2019-03-23T21:48:46.400Z,13.48
2019-03-23T21:51:18.152Z,15.70
2019-03-23T21:53:49.920Z,14.68
2019-03-23T21:56:21.470Z,14.63
2019-03-23T21:58:53.232Z,20.17
2019-03-23T22:01:24.689Z,15.75
2019-03-23T22:03:56.545Z,21.37
2019-03-23T22:06:28.412Z,31.07
2019-03-23T22:08:59.959Z,17.73
2019-03-23T22:11:31.626Z,16.25
2019-03-23T22:14:03.581Z,17.45
2019-03-23T22:16:36.673Z,17.77
2019-03-23T22:19:08.330Z,15.98
2019-03-23T22:21:40.202Z,17.70
2019-03-23T22:24:11.661Z,29.30
2019-03-23T22:26:43.614Z,31.00
2019-03-23T22:29:15.477Z,19.52
2019-03-23T22:31:47.041Z,15.78
2019-03-23T22:34:19.920Z,17.30
2019-03-23T22:36:51.578Z,23.12
2019-03-23T22:39:23.437Z,23.62
2019-03-23T22:41:54.889Z,27.87
2019-03-23T22:44:26.565Z,18.82
2019-03-23T22:46:59.328Z,17.95
2019-03-23T22:49:31.097Z,14.93
2019-03-23T22:52:02.611Z,17.37
2019-03-23T22:54:34.306Z,20.65
2019-03-23T22:57:05.862Z,22.15
2019-03-23T22:59:37.727Z,25.50
2019-03-23T23:02:09.391Z,25.92
2019-03-23T23:04:41.038Z,15.98
2019-03-23T23:07:12.799Z,18.17
2019-03-23T23:09:44.350Z,19.87
2019-03-23T23:12:16.113Z,19.42
2019-03-23T23:14:47.670Z,18.05
2019-03-23T23:17:19.428Z,17.98
2019-03-23T23:19:51.193Z,19.20
2019-03-23T23:22:22.677Z,18.02
2019-03-23T23:24:54.402Z,18.42
2019-03-23T23:27:25.966Z,19.32
2019-03-23T23:29:57.720Z,20.60
2019-03-23T23:32:29.378Z,21.82
2019-03-23T23:35:01.756Z,19.37
2019-03-23T23:37:33.512Z,26.23
2019-03-23T23:40:06.910Z,19.90
2019-03-23T23:42:38.366Z,33.08
2019-03-23T23:45:15.756Z,19.00
2019-03-23T23:47:44.029Z,20.12
2019-03-23T23:50:18.450Z,18.70
2019-03-23T23:52:50.325Z,20.70
2019-03-23T23:55:22.176Z,18.65
2019-03-23T23:57:53.733Z,19.95
